Prairie Dawn — WDC2117 — position and weather

sailwx.info

Track history (hours):
 
Tides and Currents Weather Stations Pressure Air Temp Water Temp Dewpoint Dewpoint Depression Visibility Wind Speed Wind Dir Waves Ship Positions

Prairie Dawn

Owner: American River Transportation Company, St Louis, MO. More information available from US FCC via Universal Licensing System and Coast Guard Vessel Documentation Center.

Last reported at 2017-Oct-02 03:47 UTC. Time now 2017-Nov-25 09:47 UTC.
Position N 41°09' W 090°59'.
Warning: this ship's position is 54 days out of date.

Length 33 m; draft 2.7 m.

Type: Towing. MMSI: 366988190.

Date/timePositionNaut miles runAvg speedWind from/ knotsBaromVisibWave heightAir tempDewpointWater temp
2017-Oct-02 03:47N 41°09' W 090°59'2 4.0
2017-Oct-02 03:21N 41°07' W 090°58'1 4.1
2017-Oct-02 03:00N 41°06' W 090°57'2 3.8
2017-Oct-02 02:30N 41°04' W 090°57'2 3.9
2017-Oct-02 02:00N 41°02' W 090°56'0 0.9
2017-Oct-02 01:30N 41°02' W 090°56'0 0.0
2017-Oct-02 01:00N 41°02' W 090°56'0 0.7
2017-Oct-02 00:30N 41°02' W 090°57'2 3.8
2017-Oct-02 00:00N 40°60' W 090°57'2 3.6
2017-Oct-01 23:30N 40°58' W 090°57'2 4.3
2017-Oct-01 23:00N 40°56' W 090°58'2 3.6
2017-Oct-01 22:30N 40°55' W 090°59'2 4.3
2017-Oct-01 21:59N 40°53' W 091°01'0 0.6
2017-Oct-01 21:30N 40°53' W 091°01'0 0.2
2017-Oct-01 21:00N 40°53' W 091°02'0 0.3
2017-Oct-01 20:30N 40°53' W 091°02'2 3.3
2017-Oct-01 20:00N 40°51' W 091°03'  
2017-Sep-29 06:35N 38°52' W 090°33'0 4.3
2017-Sep-29 06:28N 38°52' W 090°33'2 4.4
2017-Sep-29 06:00N 38°54' W 090°31'2 4.3
2017-Sep-29 05:30N 38°56' W 090°30'2 4.4
2017-Sep-29 05:00N 38°57' W 090°27'2 4.8
2017-Sep-29 04:30N 38°58' W 090°24'3 5.2
2017-Sep-29 04:00N 38°57' W 090°21'3 5.1
2017-Sep-29 03:30N 38°55' W 090°19'3 5.3
2017-Sep-29 02:56N 38°55' W 090°15'2 5.4
2017-Sep-29 02:30N 38°54' W 090°12'0 0.0
2017-Sep-28 01:01N 38°54' W 090°12'0 4.1
2017-Sep-28 01:00N 38°54' W 090°12'2 3.6
2017-Sep-28 00:27N 38°55' W 090°14'0 0.1
2017-Sep-27 20:22N 38°55' W 090°14'1 1.3
2017-Sep-27 19:49N 38°55' W 090°15'2 5.2
2017-Sep-27 19:30N 38°55' W 090°17'3 5.2
2017-Sep-27 19:00N 38°56' W 090°21'3 5.7
2017-Sep-27 18:30N 38°58' W 090°24'3 5.3
2017-Sep-27 18:00N 38°57' W 090°27'3 5.3
2017-Sep-27 17:30N 38°56' W 090°30'3 5.3
2017-Sep-27 16:59N 38°53' W 090°32'  
Track history (hours):
 
Tides and Currents Weather Stations Pressure Air Temp Water Temp Dewpoint Dewpoint Depression Visibility Wind Speed Wind Dir Waves Ship Positions

Prairie Dawn

Owner: American River Transportation Company, St Louis, MO. More information available from US FCC via Universal Licensing System and Coast Guard Vessel Documentation Center.

Last reported at 2017-Oct-02 03:47 UTC. Time now 2017-Nov-25 09:47 UTC.
Position N 41°09' W 090°59'.
Warning: this ship's position is 54 days out of date.

Length 33 m; draft 2.7 m.

Type: Towing. MMSI: 366988190.

Date/timePositionNaut miles runAvg speedWind from/ knotsBaromVisibWave heightAir tempDewpointWater temp
2017-Oct-02 03:47N 41°09' W 090°59'2 4.0
2017-Oct-02 03:21N 41°07' W 090°58'1 4.1
2017-Oct-02 03:00N 41°06' W 090°57'2 3.8
2017-Oct-02 02:30N 41°04' W 090°57'2 3.9
2017-Oct-02 02:00N 41°02' W 090°56'0 0.9
2017-Oct-02 01:30N 41°02' W 090°56'0 0.0
2017-Oct-02 01:00N 41°02' W 090°56'0 0.7
2017-Oct-02 00:30N 41°02' W 090°57'2 3.8
2017-Oct-02 00:00N 40°60' W 090°57'2 3.6
2017-Oct-01 23:30N 40°58' W 090°57'2 4.3
2017-Oct-01 23:00N 40°56' W 090°58'2 3.6
2017-Oct-01 22:30N 40°55' W 090°59'2 4.3
2017-Oct-01 21:59N 40°53' W 091°01'0 0.6
2017-Oct-01 21:30N 40°53' W 091°01'0 0.2
2017-Oct-01 21:00N 40°53' W 091°02'0 0.3
2017-Oct-01 20:30N 40°53' W 091°02'2 3.3
2017-Oct-01 20:00N 40°51' W 091°03'  
2017-Sep-29 06:35N 38°52' W 090°33'0 4.3
2017-Sep-29 06:28N 38°52' W 090°33'2 4.4
2017-Sep-29 06:00N 38°54' W 090°31'2 4.3
2017-Sep-29 05:30N 38°56' W 090°30'2 4.4
2017-Sep-29 05:00N 38°57' W 090°27'2 4.8
2017-Sep-29 04:30N 38°58' W 090°24'3 5.2
2017-Sep-29 04:00N 38°57' W 090°21'3 5.1
2017-Sep-29 03:30N 38°55' W 090°19'3 5.3
2017-Sep-29 02:56N 38°55' W 090°15'2 5.4
2017-Sep-29 02:30N 38°54' W 090°12'0 0.0
2017-Sep-28 01:01N 38°54' W 090°12'0 4.1
2017-Sep-28 01:00N 38°54' W 090°12'2 3.6
2017-Sep-28 00:27N 38°55' W 090°14'0 0.1
2017-Sep-27 20:22N 38°55' W 090°14'1 1.3
2017-Sep-27 19:49N 38°55' W 090°15'2 5.2
2017-Sep-27 19:30N 38°55' W 090°17'3 5.2
2017-Sep-27 19:00N 38°56' W 090°21'3 5.7
2017-Sep-27 18:30N 38°58' W 090°24'3 5.3
2017-Sep-27 18:00N 38°57' W 090°27'3 5.3
2017-Sep-27 17:30N 38°56' W 090°30'3 5.3
2017-Sep-27 16:59N 38°53' W 090°32'  

Dump ship's entire track history